createdAt,value
2023-04-24T00:00:58.076Z,84.00
2023-04-24T00:03:26.064Z,83.90
2023-04-24T00:05:53.435Z,84.30
2023-04-24T00:08:20.812Z,83.90
2023-04-24T00:10:48.083Z,84.20
2023-04-24T00:13:15.385Z,84.30
2023-04-24T00:15:42.615Z,83.80
2023-04-24T00:18:13.358Z,84.30
2023-04-24T00:20:40.691Z,84.00
2023-04-24T00:23:08.167Z,84.20
2023-04-24T00:25:35.521Z,84.00
2023-04-24T00:28:03.187Z,83.70
2023-04-24T00:30:30.588Z,83.50
2023-04-24T00:32:59.101Z,84.00
2023-04-24T00:35:26.501Z,84.40
2023-04-24T00:37:53.760Z,84.80
2023-04-24T00:40:21.437Z,85.50
2023-04-24T00:42:49.369Z,85.70
2023-04-24T00:45:16.926Z,86.10
2023-04-24T00:47:44.599Z,86.80
2023-04-24T00:50:14.336Z,86.60
2023-04-24T00:52:41.793Z,87.20
2023-04-24T00:55:09.965Z,86.50
2023-04-24T00:57:38.649Z,86.60
2023-04-24T01:00:12.577Z,87.00
2023-04-24T01:02:46.144Z,87.10
2023-04-24T01:05:15.913Z,87.40
2023-04-24T01:07:48.132Z,87.30
2023-04-24T01:10:16.098Z,87.30
2023-04-24T01:12:43.529Z,87.10
2023-04-24T01:15:13.479Z,87.20
2023-04-24T01:17:46.077Z,87.20
2023-04-24T01:20:15.369Z,87.80
2023-04-24T01:22:43.172Z,86.90
2023-04-24T01:25:10.685Z,87.90
2023-04-24T01:27:38.068Z,87.00
2023-04-24T01:30:07.479Z,87.40
2023-04-24T01:32:35.550Z,87.20
2023-04-24T01:35:03.796Z,87.50
2023-04-24T01:37:33.118Z,87.70
2023-04-24T01:40:00.638Z,87.20
2023-04-24T01:42:28.049Z,87.10
2023-04-24T01:44:55.911Z,86.70
2023-04-24T01:47:25.323Z,86.80
2023-04-24T01:49:53.309Z,87.20
2023-04-24T01:52:20.661Z,86.80
2023-04-24T01:54:48.666Z,86.60
2023-04-24T01:57:17.484Z,86.60
2023-04-24T01:59:45.870Z,87.10
2023-04-24T02:02:13.330Z,87.50
2023-04-24T02:04:40.891Z,87.50
2023-04-24T02:07:09.285Z,87.50
2023-04-24T02:09:37.043Z,87.40
2023-04-24T02:12:04.401Z,87.50
2023-04-24T02:14:31.808Z,87.40
2023-04-24T02:16:59.708Z,87.20
2023-04-24T02:19:27.242Z,87.30
2023-04-24T02:21:54.584Z,88.40
2023-04-24T02:24:21.859Z,87.80
2023-04-24T02:26:49.400Z,87.60
2023-04-24T02:29:17.236Z,87.80
2023-04-24T02:31:44.570Z,88.00
2023-04-24T02:34:12.728Z,88.00
2023-04-24T02:36:40.039Z,88.20
2023-04-24T02:39:09.380Z,88.30
2023-04-24T02:41:36.842Z,88.00
2023-04-24T02:44:04.173Z,88.30
2023-04-24T02:46:31.542Z,88.40
2023-04-24T02:48:58.806Z,88.40
2023-04-24T02:51:26.242Z,88.60
2023-04-24T02:53:53.816Z,88.70
2023-04-24T02:56:21.322Z,88.60
2023-04-24T02:58:48.626Z,88.80
2023-04-24T03:01:16.073Z,88.90
2023-04-24T03:03:43.551Z,89.00
2023-04-24T03:06:11.670Z,88.90
2023-04-24T03:08:39.029Z,89.20
2023-04-24T03:11:06.325Z,89.30
2023-04-24T03:13:33.565Z,89.40
2023-04-24T03:16:01.342Z,89.60
2023-04-24T03:18:30.948Z,89.60
2023-04-24T03:20:58.883Z,89.60
2023-04-24T03:23:26.195Z,89.40
2023-04-24T03:25:53.660Z,89.30
2023-04-24T03:28:21.109Z,89.40
2023-04-24T03:31:04.683Z,89.10
2023-04-24T03:33:37.263Z,89.10
2023-04-24T03:36:05.914Z,89.20
2023-04-24T03:38:39.477Z,88.80
2023-04-24T03:41:42.375Z,88.90
2023-04-24T03:44:18.125Z,89.20
2023-04-24T03:46:46.181Z,88.90
2023-04-24T03:49:13.474Z,89.20
2023-04-24T03:51:44.312Z,89.50
2023-04-24T03:54:21.534Z,89.30
2023-04-24T03:56:50.306Z,89.20
2023-04-24T03:59:17.737Z,89.50
2023-04-24T04:01:49.347Z,89.70
2023-04-24T04:04:18.266Z,89.70
2023-04-24T04:06:47.767Z,89.80
2023-04-24T04:09:15.542Z,89.80
2023-04-24T04:11:43.553Z,90.00
2023-04-24T04:14:10.876Z,90.00
2023-04-24T04:16:42.057Z,90.00
2023-04-24T04:19:09.778Z,87.10
2023-04-24T04:21:42.507Z,85.20
2023-04-24T04:24:45.424Z,83.80
2023-04-24T04:27:19.439Z,82.50
2023-04-24T04:29:54.031Z,82.80
2023-04-24T04:32:21.471Z,82.80
2023-04-24T04:34:50.377Z,82.60
2023-04-24T04:37:18.156Z,82.90
2023-04-24T04:40:00.581Z,82.70
2023-04-24T04:42:55.082Z,83.00
2023-04-24T04:45:25.200Z,81.40
2023-04-24T04:48:14.871Z,80.60
2023-04-24T04:50:42.922Z,80.40
2023-04-24T04:53:11.492Z,80.60
2023-04-24T04:55:41.281Z,80.40
2023-04-24T05:10:19.053Z,80.40
2023-04-24T05:12:47.826Z,80.30
2023-04-24T05:15:15.051Z,80.70
2023-04-24T05:17:45.631Z,80.90
2023-04-24T05:20:16.258Z,80.80
2023-04-24T05:22:48.350Z,80.40
2023-04-24T05:25:18.779Z,80.00
2023-04-24T05:47:22.762Z,73.60
2023-04-24T05:49:57.695Z,71.20
2023-04-24T06:11:25.836Z,69.60
2023-04-24T06:13:53.600Z,69.50
2023-04-24T06:16:48.921Z,69.20
2023-04-24T06:22:58.149Z,69.60
2023-04-24T06:25:29.462Z,69.30
2023-04-24T06:27:57.484Z,69.70
2023-04-24T06:30:25.444Z,69.70
2023-04-24T06:39:14.164Z,69.60
2023-04-24T06:41:45.396Z,68.30
2023-04-24T06:47:45.255Z,68.50
2023-04-24T06:50:12.732Z,69.00
2023-04-24T06:52:41.413Z,68.60
2023-04-24T06:55:10.791Z,70.10
2023-04-24T07:00:37.769Z,69.50
2023-04-24T07:03:07.166Z,68.20
2023-04-24T07:11:54.294Z,66.90
2023-04-24T07:14:21.665Z,64.70
2023-04-24T07:16:49.385Z,64.70
2023-04-24T07:19:20.305Z,65.60
2023-04-24T07:21:47.762Z,64.00
2023-04-24T07:24:15.750Z,61.30
2023-04-24T07:26:44.051Z,60.00
2023-04-24T07:29:11.839Z,61.90
2023-04-24T07:31:39.335Z,61.10
2023-04-24T07:34:06.813Z,61.60
2023-04-24T07:36:34.200Z,60.60
2023-04-24T07:39:01.641Z,59.30
2023-04-24T07:41:29.127Z,60.10
2023-04-24T07:43:56.473Z,60.70
2023-04-24T07:46:24.503Z,60.00
2023-04-24T07:49:05.418Z,59.40
2023-04-24T07:51:40.031Z,57.80
2023-04-24T07:54:07.340Z,57.90
2023-04-24T07:56:35.507Z,57.50
2023-04-24T07:59:03.254Z,56.60
2023-04-24T08:01:30.784Z,54.70
2023-04-24T08:03:58.306Z,54.60
2023-04-24T08:06:28.836Z,54.40
2023-04-24T08:08:56.235Z,54.40
2023-04-24T08:11:24.828Z,53.30
2023-04-24T08:13:52.494Z,53.10
2023-04-24T08:16:19.918Z,52.70
2023-04-24T08:18:47.342Z,51.40
2023-04-24T08:21:18.047Z,52.10
2023-04-24T08:23:46.550Z,52.20
2023-04-24T08:26:14.378Z,50.00
2023-04-24T08:28:41.851Z,49.50
2023-04-24T08:31:09.347Z,49.50
2023-04-24T08:33:36.634Z,49.50
2023-04-24T08:36:05.698Z,47.60
2023-04-24T08:38:33.179Z,47.10
2023-04-24T08:41:02.052Z,47.10
2023-04-24T08:43:29.636Z,45.70
2023-04-24T08:46:00.216Z,44.70
2023-04-24T08:48:31.878Z,44.70
2023-04-24T08:51:00.255Z,44.10
2023-04-24T08:53:27.999Z,45.40
2023-04-24T08:55:57.626Z,44.20
2023-04-24T08:58:29.238Z,45.30
2023-04-24T09:00:56.943Z,45.00
2023-04-24T09:03:24.959Z,45.50
2023-04-24T09:05:55.792Z,46.20
2023-04-24T09:08:25.892Z,47.10
2023-04-24T09:10:53.323Z,48.20
2023-04-24T09:13:23.910Z,48.30
2023-04-24T09:15:51.244Z,48.50
2023-04-24T09:18:18.504Z,49.30
2023-04-24T09:21:08.452Z,50.70
2023-04-24T09:23:36.412Z,50.30
2023-04-24T09:26:07.498Z,50.40
2023-04-24T09:28:40.306Z,51.10
2023-04-24T09:31:14.901Z,51.50
2023-04-24T09:33:55.709Z,51.70
2023-04-24T09:36:33.069Z,51.50
2023-04-24T09:39:01.997Z,52.10
2023-04-24T09:41:32.576Z,52.30
2023-04-24T09:44:18.154Z,53.00
2023-04-24T09:46:50.683Z,54.00
2023-04-24T09:49:23.556Z,53.50
2023-04-24T09:51:51.118Z,53.20
2023-04-24T09:54:21.846Z,54.20
2023-04-24T09:56:51.521Z,54.20
2023-04-24T09:59:20.515Z,54.90
2023-04-24T10:01:49.631Z,55.70
2023-04-24T10:04:25.503Z,56.10
2023-04-24T10:06:54.571Z,55.80
2023-04-24T10:09:24.473Z,57.00
2023-04-24T10:11:55.883Z,57.50
2023-04-24T10:14:25.035Z,57.40
2023-04-24T10:16:55.441Z,57.80
2023-04-24T10:19:27.032Z,58.10
2023-04-24T10:21:56.627Z,60.00
2023-04-24T10:24:24.137Z,60.80
2023-04-24T10:26:52.065Z,61.60
2023-04-24T10:29:20.599Z,63.40
2023-04-24T10:31:48.440Z,64.50
2023-04-24T10:34:18.762Z,66.40
2023-04-24T10:36:51.648Z,67.80
2023-04-24T10:39:27.221Z,67.10
2023-04-24T10:41:58.818Z,67.80
2023-04-24T10:44:26.312Z,67.50
2023-04-24T10:46:57.129Z,66.70
2023-04-24T10:49:30.837Z,65.60
2023-04-24T10:52:03.373Z,65.90
2023-04-24T10:54:41.215Z,66.80
2023-04-24T10:57:24.031Z,66.90
2023-04-24T11:00:10.244Z,69.60
2023-04-24T11:06:05.015Z,68.60
2023-04-24T11:08:49.907Z,68.90
2023-04-24T11:11:19.164Z,69.10
2023-04-24T11:13:56.940Z,68.80
2023-04-24T11:16:24.696Z,68.20
2023-04-24T11:19:00.596Z,68.20
2023-04-24T11:21:33.564Z,69.00
2023-04-24T11:24:41.005Z,67.10
2023-04-24T11:27:18.863Z,67.00
2023-04-24T11:29:49.624Z,65.90
2023-04-24T11:32:28.158Z,66.80
2023-04-24T11:35:03.179Z,66.00
2023-04-24T11:37:39.891Z,66.10
2023-04-24T11:40:09.929Z,64.90
2023-04-24T11:42:45.257Z,64.80
2023-04-24T11:45:15.510Z,66.10
2023-04-24T11:47:45.002Z,66.00
2023-04-24T11:50:14.981Z,63.70
2023-04-24T11:52:48.038Z,62.20
2023-04-24T11:55:15.912Z,60.50
2023-04-24T11:57:50.207Z,61.20
2023-04-24T12:00:20.466Z,60.00
2023-04-24T12:02:49.832Z,59.70
2023-04-24T12:05:28.887Z,59.80
2023-04-24T12:07:56.761Z,58.00
2023-04-24T12:10:28.015Z,58.10
2023-04-24T12:13:02.155Z,59.30
2023-04-24T12:18:47.113Z,66.00
2023-04-24T12:21:23.514Z,65.10
2023-04-24T12:23:52.113Z,65.60
2023-04-24T13:08:56.116Z,68.40
2023-04-24T13:11:23.923Z,65.30
2023-04-24T13:17:01.741Z,64.00
2023-04-24T13:19:31.118Z,63.40
2023-04-24T13:22:00.160Z,61.70
2023-04-24T13:30:40.887Z,60.20
2023-04-24T13:33:08.346Z,58.10
2023-04-24T13:35:36.028Z,59.50
2023-04-24T13:41:13.521Z,58.30
2023-04-24T13:49:55.315Z,58.80
2023-04-24T13:52:22.768Z,58.70
2023-04-24T13:54:50.392Z,57.90
2023-04-24T13:57:18.280Z,57.30
2023-04-24T13:59:46.895Z,58.30
2023-04-24T14:02:15.764Z,57.30
2023-04-24T14:04:55.685Z,57.60
2023-04-24T14:07:23.153Z,58.70
2023-04-24T14:09:50.916Z,59.80
2023-04-24T14:12:21.420Z,59.40
2023-04-24T14:14:49.536Z,58.60
2023-04-24T14:20:20.741Z,58.90
2023-04-24T14:22:49.417Z,60.80
2023-04-24T14:44:59.769Z,59.00
2023-04-24T14:47:27.711Z,58.50
2023-04-24T14:49:55.196Z,62.50
2023-04-24T14:52:22.583Z,64.80
2023-04-24T14:54:57.090Z,65.00
2023-04-24T14:57:27.221Z,63.70
2023-04-24T14:59:54.537Z,63.40
2023-04-24T15:02:22.533Z,64.00
2023-04-24T15:04:51.126Z,63.10
2023-04-24T15:07:18.629Z,61.70
2023-04-24T15:09:48.002Z,61.80
2023-04-24T15:12:16.619Z,62.20
2023-04-24T15:18:01.624Z,59.40
2023-04-24T15:33:03.064Z,59.00
2023-04-24T15:44:53.581Z,58.80
2023-04-24T15:47:21.363Z,59.40
2023-04-24T15:49:51.730Z,59.80
2023-04-24T16:02:21.586Z,59.50
2023-04-24T16:04:57.254Z,60.30
2023-04-24T16:07:33.739Z,59.40
2023-04-24T16:10:05.819Z,60.80
2023-04-24T16:12:40.660Z,59.30
2023-04-24T16:15:14.324Z,58.40
2023-04-24T16:17:46.702Z,59.00
2023-04-24T16:45:38.451Z,59.40
2023-04-24T16:48:06.011Z,59.00
2023-04-24T16:50:33.654Z,58.80
2023-04-24T16:53:01.189Z,59.50
2023-04-24T16:55:28.528Z,58.50
2023-04-24T16:57:56.119Z,59.30
2023-04-24T17:00:27.018Z,58.70
2023-04-24T17:02:54.444Z,58.30
2023-04-24T17:05:25.429Z,58.20
2023-04-24T17:07:53.850Z,59.40
2023-04-24T17:10:21.140Z,58.10
2023-04-24T17:12:48.507Z,58.90
2023-04-24T17:15:15.954Z,58.20
2023-04-24T17:17:44.187Z,58.00
2023-04-24T17:20:21.932Z,58.50
2023-04-24T17:22:50.902Z,58.60
2023-04-24T17:25:18.855Z,58.90
2023-04-24T17:27:46.505Z,58.00
2023-04-24T17:30:14.722Z,58.40
2023-04-24T17:32:42.040Z,58.00
2023-04-24T17:35:10.779Z,58.20
2023-04-24T17:37:38.966Z,57.80
2023-04-24T18:02:29.097Z,58.60
2023-04-24T18:48:50.562Z,67.90
2023-04-24T18:55:01.873Z,68.70
2023-04-24T19:23:48.450Z,73.60
2023-04-24T19:26:17.382Z,74.70
2023-04-24T19:28:45.850Z,74.50
2023-04-24T19:31:13.273Z,74.40
2023-04-24T19:33:44.242Z,75.00
2023-04-24T19:36:13.148Z,75.00
2023-04-24T19:38:40.808Z,74.80
2023-04-24T19:41:08.281Z,75.40
2023-04-24T19:43:35.626Z,75.80
2023-04-24T19:46:04.001Z,75.80
2023-04-24T19:48:32.638Z,76.40
2023-04-24T19:51:00.996Z,76.40
2023-04-24T19:53:30.059Z,76.60
2023-04-24T19:55:57.829Z,76.80
2023-04-24T20:01:52.010Z,76.30
2023-04-24T20:04:23.225Z,76.30
2023-04-24T20:06:51.482Z,77.60
2023-04-24T20:10:19.285Z,76.80
2023-04-24T20:16:26.622Z,76.50
2023-04-24T20:19:26.730Z,76.70
2023-04-24T20:31:33.849Z,75.80
2023-04-24T20:34:01.602Z,76.30
2023-04-24T20:39:55.853Z,77.00
2023-04-24T20:42:29.938Z,78.50
2023-04-24T20:45:01.792Z,78.90
2023-04-24T20:47:31.392Z,79.20
2023-04-24T20:49:58.879Z,79.30
2023-04-24T20:52:26.156Z,79.50
2023-04-24T20:54:54.433Z,80.10
2023-04-24T21:01:48.858Z,79.80
2023-04-24T21:04:16.629Z,80.40
2023-04-24T21:06:43.993Z,80.90
2023-04-24T21:09:11.574Z,81.30
2023-04-24T21:11:39.219Z,81.50
2023-04-24T21:14:06.798Z,81.30
2023-04-24T21:16:34.253Z,80.40
2023-04-24T21:19:02.048Z,80.40
2023-04-24T21:21:29.386Z,81.00
2023-04-24T21:23:56.637Z,81.50
2023-04-24T21:26:24.019Z,80.80
2023-04-24T21:28:51.749Z,81.40
2023-04-24T21:31:19.217Z,81.20
2023-04-24T21:33:46.897Z,81.80
2023-04-24T21:36:14.470Z,82.50
2023-04-24T21:38:41.767Z,83.00
2023-04-24T21:41:09.420Z,83.10
2023-04-24T21:51:03.465Z,83.20
2023-04-24T21:53:30.984Z,83.50
2023-04-24T21:55:58.614Z,83.60
2023-04-24T21:58:26.025Z,84.20
2023-04-24T22:00:53.349Z,84.00
2023-04-24T22:03:20.803Z,84.60
2023-04-24T22:06:38.750Z,84.00
2023-04-24T22:09:07.697Z,84.30
2023-04-24T22:12:04.792Z,85.00
2023-04-24T22:14:32.251Z,84.30
2023-04-24T22:25:19.714Z,85.70
2023-04-24T22:27:47.105Z,86.00
2023-04-24T22:30:40.198Z,86.10
2023-04-24T22:33:07.894Z,86.10
2023-04-24T22:35:37.212Z,87.10
2023-04-24T22:38:08.573Z,87.60
2023-04-24T22:40:36.180Z,87.40
2023-04-24T22:43:03.874Z,87.60
2023-04-24T22:45:31.276Z,87.80
2023-04-24T22:47:58.672Z,88.40
2023-04-24T22:50:26.209Z,88.50
2023-04-24T22:52:53.843Z,88.80
2023-04-24T22:55:21.834Z,88.70
2023-04-24T22:57:49.915Z,89.00
2023-04-24T23:05:09.562Z,88.60
2023-04-24T23:07:38.311Z,88.60
2023-04-24T23:11:21.694Z,88.00
2023-04-24T23:13:49.822Z,88.30
2023-04-24T23:16:17.508Z,88.40
2023-04-24T23:19:55.289Z,88.80
2023-04-24T23:22:22.817Z,88.10
2023-04-24T23:24:50.504Z,88.10
2023-04-24T23:27:17.821Z,88.60
2023-04-24T23:29:46.132Z,88.70
2023-04-24T23:32:13.444Z,88.80
2023-04-24T23:34:41.425Z,88.30
2023-04-24T23:37:08.671Z,88.30
2023-04-24T23:39:35.954Z,88.00
2023-04-24T23:42:04.238Z,88.30
2023-04-24T23:44:31.703Z,87.70
2023-04-24T23:51:25.800Z,87.90
2023-04-24T23:53:53.390Z,87.10
2023-04-24T23:56:24.158Z,88.50
2023-04-24T23:58:51.463Z,88.70
